Time;durP1;ratioP1;P1;durP2;ratioP2;P2;SDS_P1;SDS_P2;PMS_P1;PMS_P2;Temp;Humidity;BMP_temperature;BMP_pressure;BME280_temperature;BME280_humidity;BME280_pressure;Samples;Min_cycle;Max_cycle;Signal;HPM_P1;HPM_P2
2023/04/24 00:05:02;;;;;;;15.65;10.43;;;;;;;12.11;70.85;99130.00;30868369;28;97166;-67
2023/04/24 00:20:04;;;;;;;16.40;11.33;;;;;;;12.14;70.98;99118.91;30973465;28;97224;-66
2023/04/24 00:35:05;;;;;;;17.53;12.80;;;;;;;12.13;71.85;99095.91;30971259;28;97572;-67
2023/04/24 00:50:06;;;;;;;16.90;12.33;;;;;;;12.07;71.91;99085.22;30969000;28;97029;-66
2023/04/24 01:05:08;;;;;;;20.53;13.70;;;;;;;11.97;72.29;99074.97;30971191;28;97570;-66
2023/04/24 01:20:09;;;;;;;15.50;12.57;;;;;;;11.84;73.21;99075.78;30978961;28;97057;-66
2023/04/24 01:35:09;;;;;;;19.87;12.13;;;;;;;11.78;73.47;99066.75;30988067;28;96617;-65
2023/04/24 01:50:10;;;;;;;15.48;11.93;;;;;;;11.77;73.38;99057.13;30987884;28;96806;-67
2023/04/24 02:05:10;;;;;;;15.63;11.85;;;;;;;11.81;73.29;99055.66;30986957;28;96845;-66
2023/04/24 02:20:11;;;;;;;17.55;10.95;;;;;;;11.78;73.68;99040.09;30984648;28;96848;-66
2023/04/24 02:35:11;;;;;;;15.13;11.23;;;;;;;11.78;74.46;99024.06;30984110;28;96971;-67
2023/04/24 02:50:11;;;;;;;15.32;11.65;;;;;;;11.78;73.75;99007.22;30980898;28;96831;-66
2023/04/24 03:05:12;;;;;;;15.13;10.85;;;;;;;11.81;73.80;98996.97;30981163;28;96699;-63
2023/04/24 03:20:12;;;;;;;16.35;11.18;;;;;;;11.71;74.86;98999.22;30958773;28;97085;-67
2023/04/24 03:35:13;;;;;;;14.85;10.88;;;;;;;11.66;73.93;99015.06;30973432;28;97480;-65
2023/04/24 03:50:13;;;;;;;13.68;10.68;;;;;;;11.43;74.24;99007.47;30969771;28;96912;-66
2023/04/24 04:05:13;;;;;;;15.35;11.23;;;;;;;11.20;75.15;99015.84;30955704;28;97198;-66
2023/04/24 04:20:14;;;;;;;16.30;11.02;;;;;;;11.36;75.16;99015.47;30841151;28;97249;-66
2023/04/24 04:35:14;;;;;;;16.45;11.35;;;;;;;11.54;75.13;99006.00;30865060;28;97278;-66
2023/04/24 04:50:16;;;;;;;20.75;11.35;;;;;;;11.88;74.82;98999.63;30975324;28;96645;-64
2023/04/24 05:05:17;;;;;;;13.93;9.47;;;;;;;12.54;73.51;99003.16;30973590;28;97057;-63
2023/04/24 05:20:17;;;;;;;12.47;8.13;;;;;;;13.16;71.46;99007.94;30864300;28;97599;-62
2023/04/24 05:35:18;;;;;;;10.63;6.63;;;;;;;14.10;68.96;99013.34;30863643;28;96749;-62
2023/04/24 05:50:19;;;;;;;12.13;7.15;;;;;;;14.60;66.26;99016.91;30909922;28;96875;-63
2023/04/24 06:05:19;;;;;;;10.70;7.57;;;;;;;14.91;65.24;99032.00;30978095;28;96757;-65
2023/04/24 06:20:19;;;;;;;7.30;4.93;;;;;;;15.07;62.97;99035.91;30983566;28;96667;-61
2023/04/24 06:35:20;;;;;;;10.10;5.63;;;;;;;15.11;62.47;99034.41;30972380;28;97153;-64
2023/04/24 06:50:20;;;;;;;9.40;5.80;;;;;;;15.47;61.01;99037.19;30979716;28;96767;-65
2023/04/24 07:05:21;;;;;;;10.98;5.22;;;;;;;15.68;60.19;99033.16;30979400;28;96863;-61
2023/04/24 07:20:21;;;;;;;9.30;5.22;;;;;;;16.08;58.65;99044.03;30977978;28;100940;-65
2023/04/24 07:35:21;;;;;;;12.00;5.72;;;;;;;16.94;57.20;99044.47;30977130;28;97265;-65
2023/04/24 07:50:22;;;;;;;9.20;3.90;;;;;;;17.35;53.81;99039.84;30975328;28;104462;-61
2023/04/24 08:05:22;;;;;;;6.68;4.63;;;;;;;16.89;52.88;99042.50;30968250;28;98051;-64
2023/04/24 08:20:23;;;;;;;8.80;4.50;;;;;;;16.23;53.71;99057.00;30926126;28;97234;-61
2023/04/24 08:35:23;;;;;;;12.52;5.13;;;;;;;16.40;54.83;99057.09;30857549;28;97210;-60
2023/04/24 08:50:24;;;;;;;9.38;6.25;;;;;;;18.41;54.59;99049.81;30941127;28;96827;-60
2023/04/24 09:05:24;;;;;;;8.32;5.20;;;;;;;19.35;52.49;99046.28;30969714;28;98084;-60
2023/04/24 09:20:25;;;;;;;8.85;5.63;;;;;;;23.15;47.96;99048.88;30980307;28;96710;-60
2023/04/24 09:35:25;;;;;;;9.43;5.65;;;;;;;25.37;39.58;99054.72;30975010;28;97156;-62
2023/04/24 09:50:26;;;;;;;10.80;5.80;;;;;;;21.84;43.63;99037.06;30967547;28;98836;-63
2023/04/24 10:05:32;;;;;;;6.90;5.73;;;;;;;21.48;45.50;99028.94;30985239;28;106015;-62
2023/04/24 10:20:33;;;;;;;6.33;4.93;;;;;;;20.46;45.76;99035.69;30981871;28;96692;-62
2023/04/24 10:35:38;;;;;;;6.23;4.47;;;;;;;21.40;45.41;99024.88;30972388;28;97380;-62
2023/04/24 10:50:52;;;;;;;6.30;4.87;;;;;;;19.83;46.38;99049.94;30970081;28;97307;-62
2023/04/24 11:06:08;;;;;;;9.73;6.30;;;;;;;19.02;48.26;99040.03;30980718;28;97131;-63
2023/04/24 11:21:13;;;;;;;7.37;5.70;;;;;;;19.21;47.96;99027.78;30963008;28;97366;-63
2023/04/24 11:36:13;;;;;;;7.93;5.27;;;;;;;20.60;46.28;99028.75;30973027;28;97225;-64
2023/04/24 11:51:14;;;;;;;7.07;5.70;;;;;;;20.93;43.47;99039.44;30974815;28;96902;-65
2023/04/24 12:06:15;;;;;;;7.63;6.17;;;;;;;19.18;45.43;99031.00;30953345;28;97255;-60
2023/04/24 12:21:20;;;;;;;7.88;5.88;;;;;;;18.35;47.75;99028.44;30966005;28;98734;-60
2023/04/24 12:36:21;;;;;;;8.37;5.10;;;;;;;18.29;48.91;99018.63;30959683;28;96973;-62
2023/04/24 12:51:22;;;;;;;5.80;5.17;;;;;;;17.99;50.10;99009.06;30967430;28;96862;-60
2023/04/24 13:06:23;;;;;;;;;;;;;;;17.75;50.20;99001.97;30950293;28;98592;-61
2023/04/24 13:21:23;;;;;;;8.85;4.05;;;;;;;17.43;52.42;98988.28;30989222;28;96814;-61
2023/04/24 13:36:23;;;;;;;8.70;2.20;;;;;;;16.45;51.49;98999.94;30985283;28;106650;-61
2023/04/24 13:51:26;;;;;;;3.58;2.05;;;;;;;15.23;54.10;98999.59;30975512;28;104698;-65
2023/04/24 14:06:27;;;;;;;3.27;1.40;;;;;;;14.66;54.23;98999.97;30969153;28;97304;-64
2023/04/24 14:21:27;;;;;;;3.78;2.20;;;;;;;14.39;56.20;99000.25;30970289;28;98532;-65
2023/04/24 14:36:28;;;;;;;2.70;1.75;;;;;;;14.02;56.88;99005.63;30969170;28;97109;-65
2023/04/24 14:51:28;;;;;;;5.05;1.95;;;;;;;13.99;57.25;99011.41;30964904;28;97268;-64
2023/04/24 15:06:31;;;;;;;3.65;2.20;;;;;;;13.45;58.58;99016.41;30963091;28;97298;-63
2023/04/24 15:21:32;;;;;;;5.13;1.53;;;;;;;13.47;59.71;99017.03;30958629;28;97445;-65
2023/04/24 15:36:32;;;;;;;2.97;1.65;;;;;;;13.43;60.48;99023.84;30955769;28;97050;-65
2023/04/24 15:51:32;;;;;;;4.30;1.80;;;;;;;13.33;61.53;99040.34;30954945;28;97056;-63
2023/04/24 16:06:33;;;;;;;3.55;0.98;;;;;;;13.41;61.42;99032.09;30956606;28;97449;-63
2023/04/24 16:21:33;;;;;;;3.55;1.90;;;;;;;13.38;61.90;99032.50;31029816;28;97991;-64
2023/04/24 16:36:34;;;;;;;3.70;2.00;;;;;;;13.39;62.36;99052.06;31093907;28;100109;-65
2023/04/24 16:51:35;;;;;;;6.53;2.80;;;;;;;13.25;62.85;99032.59;31106215;28;97137;-65
2023/04/24 17:06:36;;;;;;;3.72;2.17;;;;;;;12.86;63.70;99036.09;31115939;28;96807;-65
2023/04/24 17:21:36;;;;;;;4.63;2.90;;;;;;;12.61;65.50;99037.88;31115740;28;98946;-62
2023/04/24 17:36:37;;;;;;;4.32;2.67;;;;;;;12.63;67.00;99030.44;31113498;28;102035;-63
2023/04/24 17:51:37;;;;;;;6.03;3.53;;;;;;;12.11;67.57;99065.94;31110312;28;96740;-63
2023/04/24 18:06:38;;;;;;;13.73;6.10;;;;;;;11.76;69.59;99084.81;31106007;28;111229;-65
2023/04/24 18:21:39;;;;;;;6.70;4.47;;;;;;;11.61;69.76;99118.88;31107329;28;97981;-65
2023/04/24 18:36:39;;;;;;;7.22;4.60;;;;;;;11.61;70.69;99126.88;31108668;28;96657;-67
2023/04/24 18:51:40;;;;;;;8.07;4.40;;;;;;;11.77;71.34;99129.16;31106565;28;97669;-65
2023/04/24 19:06:40;;;;;;;11.70;5.60;;;;;;;11.85;71.94;99136.97;31105327;28;97200;-64
2023/04/24 19:21:40;;;;;;;9.80;5.60;;;;;;;11.65;72.40;99131.59;31103750;28;96637;-65
2023/04/24 19:36:41;;;;;;;11.55;7.60;;;;;;;11.52;72.25;99121.72;31102629;28;96587;-65
2023/04/24 19:51:42;;;;;;;10.73;7.20;;;;;;;11.32;73.17;99102.22;31100571;28;96595;-64
2023/04/24 20:06:42;;;;;;;9.15;6.65;;;;;;;11.03;73.23;99127.31;31101075;28;96856;-65
2023/04/24 20:21:42;;;;;;;10.40;6.38;;;;;;;10.75;74.03;99120.25;31103489;28;111623;-66
2023/04/24 20:36:43;;;;;;;10.05;5.70;;;;;;;10.66;73.88;99135.56;31106114;28;97249;-65
2023/04/24 20:51:43;;;;;;;6.80;4.45;;;;;;;10.60;74.11;99144.34;31033779;28;97133;-65
2023/04/24 21:06:44;;;;;;;6.38;4.38;;;;;;;10.64;73.95;99150.91;30991020;28;109663;-65
2023/04/24 21:21:44;;;;;;;6.35;4.03;;;;;;;10.65;73.95;99163.22;30991140;28;97319;-65
2023/04/24 21:36:46;;;;;;;7.60;4.45;;;;;;;10.70;73.08;99167.97;30989318;28;112327;-63
2023/04/24 21:51:46;;;;;;;7.03;3.40;;;;;;;10.72;72.87;99174.75;30986975;28;97835;-66
2023/04/24 22:06:47;;;;;;;6.55;2.50;;;;;;;10.68;71.15;99189.47;30986749;28;97452;-65
2023/04/24 22:21:48;;;;;;;4.65;2.67;;;;;;;10.48;70.01;99192.81;30985511;28;96737;-65
2023/04/24 22:36:49;;;;;;;6.27;2.93;;;;;;;10.15;69.46;99196.00;30982099;28;97146;-66
2023/04/24 22:51:50;;;;;;;4.18;2.53;;;;;;;9.76;69.22;99205.28;30981659;28;110147;-64
2023/04/24 23:06:50;;;;;;;3.43;2.37;;;;;;;9.42;68.50;99220.03;30975893;28;98183;-66
2023/04/24 23:21:51;;;;;;;4.25;1.75;;;;;;;9.16;68.49;99225.84;30981144;28;106103;-65
2023/04/24 23:36:51;;;;;;;3.22;1.58;;;;;;;9.03;68.26;99220.38;30980381;28;97179;-64
2023/04/24 23:51:52;;;;;;;1.60;1.13;;;;;;;9.01;68.03;99217.91;30977730;28;97253;-65
